createdAt,value
2022-11-04T00:01:44.574Z,99929.00
2022-11-04T00:04:14.152Z,99937.72
2022-11-04T00:06:41.820Z,99926.03
2022-11-04T00:09:13.127Z,99918.78
2022-11-04T00:11:59.152Z,99932.38
2022-11-04T00:14:28.964Z,99923.78
2022-11-04T00:17:16.543Z,99919.34
2022-11-04T00:20:02.693Z,99910.91
2022-11-04T00:22:48.827Z,99915.38
2022-11-04T00:25:34.591Z,99925.00
2022-11-04T00:28:22.756Z,99924.44
2022-11-04T00:30:53.640Z,99924.72
2022-11-04T00:33:27.022Z,99908.19
2022-11-04T00:35:56.969Z,99902.25
2022-11-04T00:38:25.732Z,99909.16
2022-11-04T00:40:53.272Z,99897.03
2022-11-04T00:43:20.827Z,99905.75
2022-11-04T00:45:47.964Z,99889.53
2022-11-04T00:48:15.436Z,99911.38
2022-11-04T00:50:42.727Z,99892.75
2022-11-04T00:53:10.165Z,99888.16
2022-11-04T00:55:38.106Z,99892.56
2022-11-04T00:58:05.324Z,99882.75
2022-11-04T01:00:32.810Z,99877.00
2022-11-04T01:03:01.035Z,99877.13
2022-11-04T01:05:28.492Z,99872.91
2022-11-04T01:07:56.871Z,99863.22
2022-11-04T01:10:24.327Z,99855.41
2022-11-04T01:12:53.460Z,99856.09
2022-11-04T01:15:21.052Z,99853.78
2022-11-04T01:17:48.194Z,99851.63
2022-11-04T01:20:15.642Z,99859.28
2022-11-04T01:22:42.884Z,99844.38
2022-11-04T01:25:10.524Z,99852.41
2022-11-04T01:27:37.735Z,99835.53
2022-11-04T01:30:05.814Z,99848.28
2022-11-04T01:32:32.957Z,99830.63
2022-11-04T01:35:00.438Z,99848.06
2022-11-04T01:37:27.670Z,99840.16
2022-11-04T01:39:55.124Z,99840.78
2022-11-04T01:42:23.108Z,99828.56
2022-11-04T01:45:00.873Z,99820.41
2022-11-04T01:47:38.212Z,99825.16
2022-11-04T01:50:08.686Z,99824.28
2022-11-04T01:52:52.587Z,99830.34
2022-11-04T01:55:27.020Z,99801.16
2022-11-04T01:57:58.413Z,99808.09
2022-11-04T02:00:25.937Z,99810.72
2022-11-04T02:03:16.881Z,99783.38
2022-11-04T02:05:46.243Z,99782.38
2022-11-04T02:08:15.755Z,99796.91
2022-11-04T02:10:51.911Z,99780.94
2022-11-04T02:13:19.081Z,99782.38
2022-11-04T02:16:05.137Z,99776.31
2022-11-04T02:19:06.728Z,99771.22
2022-11-04T02:22:14.244Z,99755.47
2022-11-04T02:24:59.368Z,99756.72
2022-11-04T02:27:51.554Z,99756.47
2022-11-04T02:30:21.088Z,99750.19
2022-11-04T02:33:00.715Z,99740.50
2022-11-04T02:35:46.056Z,99741.84
2022-11-04T02:38:44.026Z,99744.97
2022-11-04T02:41:33.067Z,99724.75
2022-11-04T02:44:07.091Z,99736.59
2022-11-04T02:46:47.244Z,99725.00
2022-11-04T02:49:23.646Z,99730.06
2022-11-04T02:51:58.848Z,99723.63
2022-11-04T02:54:33.854Z,99723.53
2022-11-04T02:57:04.223Z,99723.63
2022-11-04T02:59:40.047Z,99729.56
2022-11-04T03:02:11.106Z,99721.47
2022-11-04T03:04:42.413Z,99714.94
2022-11-04T03:07:12.817Z,99707.06
2022-11-04T03:09:45.391Z,99702.91
2022-11-04T03:12:15.839Z,99709.97
2022-11-04T03:14:49.174Z,99717.56
2022-11-04T03:17:41.935Z,99713.06
2022-11-04T03:20:17.093Z,99705.06
2022-11-04T03:22:44.539Z,99695.75
2022-11-04T03:25:12.449Z,99701.09
2022-11-04T03:27:50.160Z,99702.47
2022-11-04T03:30:20.710Z,99702.34
2022-11-04T03:33:09.454Z,99698.97
2022-11-04T03:35:37.111Z,99684.56
2022-11-04T03:38:04.358Z,99672.97
2022-11-04T03:40:31.787Z,99663.34
2022-11-04T03:43:16.856Z,99681.06
2022-11-04T03:45:45.210Z,99669.19
2022-11-04T03:48:13.317Z,99668.34
2022-11-04T03:50:47.743Z,99669.78
2022-11-04T03:53:19.400Z,99666.75
2022-11-04T03:56:05.909Z,99660.69
2022-11-04T03:59:04.552Z,99650.75
2022-11-04T04:02:00.863Z,99656.84
2022-11-04T04:04:32.449Z,99663.44
2022-11-04T04:07:20.383Z,99647.09
2022-11-04T04:09:55.687Z,99645.88
2022-11-04T04:12:40.331Z,99660.50
2022-11-04T04:15:20.072Z,99639.09
2022-11-04T04:17:52.956Z,99642.63
2022-11-04T04:20:24.010Z,99640.97
2022-11-04T04:22:56.181Z,99633.44
2022-11-04T04:25:45.468Z,99644.69
2022-11-04T04:28:15.959Z,99642.63
2022-11-04T04:30:44.546Z,99632.41
2022-11-04T04:33:16.267Z,99635.84
2022-11-04T04:35:47.443Z,99639.69
2022-11-04T04:38:46.408Z,99632.94
2022-11-04T04:41:37.118Z,99639.75
2022-11-04T04:44:32.469Z,99636.97
2022-11-04T04:47:02.790Z,99640.75
2022-11-04T04:49:35.382Z,99642.72
2022-11-04T04:52:08.146Z,99643.47
2022-11-04T04:54:35.682Z,99631.75
2022-11-04T04:57:02.786Z,99617.19
2022-11-04T04:59:30.266Z,99636.38
2022-11-04T05:01:57.602Z,99638.66
2022-11-04T05:04:25.137Z,99641.72
2022-11-04T05:06:52.290Z,99639.75
2022-11-04T05:09:19.766Z,99636.75
2022-11-04T05:11:46.966Z,99632.47
2022-11-04T05:14:14.192Z,99642.53
2022-11-04T05:16:41.583Z,99618.94
2022-11-04T05:19:09.100Z,99627.69
2022-11-04T05:21:36.982Z,99629.31
2022-11-04T05:24:04.347Z,99624.69
2022-11-04T05:26:31.861Z,99629.63
2022-11-04T05:28:59.059Z,99613.56
2022-11-04T05:31:27.680Z,99620.25
2022-11-04T05:33:54.804Z,99615.03
2022-11-04T05:36:22.348Z,99613.63
2022-11-04T05:38:55.661Z,99618.69
2022-11-04T05:41:26.192Z,99612.75
2022-11-04T05:44:01.662Z,99622.38
2022-11-04T05:46:29.485Z,99618.44
2022-11-04T05:48:56.844Z,99614.94
2022-11-04T05:51:26.966Z,99612.84
2022-11-04T05:53:54.287Z,99605.03
2022-11-04T05:56:21.825Z,99606.34
2022-11-04T05:58:49.102Z,99620.72
2022-11-04T06:01:35.992Z,99613.97
2022-11-04T06:04:05.910Z,99613.78
2022-11-04T06:06:36.952Z,99609.91
2022-11-04T06:09:04.446Z,99607.00
2022-11-04T06:11:33.777Z,99604.53
2022-11-04T06:14:01.035Z,99599.06
2022-11-04T06:16:28.684Z,99614.38
2022-11-04T06:18:59.946Z,99601.59
2022-11-04T06:21:32.907Z,99590.44
2022-11-04T06:24:00.542Z,99592.84
2022-11-04T06:26:30.909Z,99597.13
2022-11-04T06:28:58.383Z,99603.31
2022-11-04T06:31:25.954Z,99600.84
2022-11-04T06:33:53.318Z,99605.91
2022-11-04T06:36:20.866Z,99608.41
2022-11-04T06:38:48.098Z,99601.41
2022-11-04T06:41:16.994Z,99583.72
2022-11-04T06:43:44.693Z,99602.47
2022-11-04T06:46:41.192Z,99602.31
2022-11-04T06:49:13.223Z,99608.38
2022-11-04T06:51:41.354Z,99596.16
2022-11-04T06:54:08.775Z,99610.81
2022-11-04T06:56:36.236Z,99613.38
2022-11-04T06:59:04.186Z,99617.59
2022-11-04T07:01:35.752Z,99618.16
2022-11-04T07:04:05.500Z,99614.84
2022-11-04T07:06:33.087Z,99619.25
2022-11-04T07:09:02.596Z,99601.94
2022-11-04T07:11:32.163Z,99608.81
2022-11-04T07:13:59.499Z,99615.84
2022-11-04T07:16:27.023Z,99597.41
2022-11-04T07:18:55.486Z,99598.44
2022-11-04T07:21:23.633Z,99601.41
2022-11-04T07:23:50.931Z,99601.81
2022-11-04T07:26:18.392Z,99594.47
2022-11-04T07:28:46.067Z,99602.50
2022-11-04T07:31:15.180Z,99599.28
2022-11-04T07:33:42.408Z,99604.63
2022-11-04T07:36:12.697Z,99606.03
2022-11-04T07:38:39.852Z,99597.44
2022-11-04T07:41:08.433Z,99591.97
2022-11-04T07:43:35.726Z,99601.25
2022-11-04T07:46:07.388Z,99596.63
2022-11-04T07:48:35.435Z,99581.13
2022-11-04T07:51:04.384Z,99603.09
2022-11-04T07:53:31.881Z,99597.25
2022-11-04T07:56:03.188Z,99603.31
2022-11-04T07:58:30.338Z,99609.19
2022-11-04T08:00:59.952Z,99595.28
2022-11-04T08:03:27.416Z,99598.31
2022-11-04T08:06:00.095Z,99603.91
2022-11-04T08:08:28.125Z,99609.94
2022-11-04T08:11:02.337Z,99613.97
2022-11-04T08:13:35.364Z,99610.16
2022-11-04T08:16:05.923Z,99601.22
2022-11-04T08:18:33.941Z,99605.75
2022-11-04T08:21:02.533Z,99589.31
2022-11-04T08:23:30.106Z,99589.66
2022-11-04T08:25:58.634Z,99599.53
2022-11-04T08:28:26.505Z,99601.72
2022-11-04T08:31:06.793Z,99602.81
2022-11-04T08:33:35.404Z,99594.72
2022-11-04T08:36:09.456Z,99600.28
2022-11-04T08:38:37.147Z,99590.41
2022-11-04T08:41:07.078Z,99582.28
2022-11-04T08:43:34.897Z,99585.44
2022-11-04T08:46:04.588Z,99575.78
2022-11-04T08:48:32.060Z,99574.25
2022-11-04T08:50:59.708Z,99577.59
2022-11-04T08:53:27.832Z,99586.50
2022-11-04T08:55:55.342Z,99577.53
2022-11-04T08:58:24.835Z,99579.97
2022-11-04T09:00:52.411Z,99584.00
2022-11-04T09:03:20.178Z,99574.72
2022-11-04T09:05:49.275Z,99568.50
2022-11-04T09:08:17.963Z,99565.22
2022-11-04T09:10:47.644Z,99582.41
2022-11-04T09:13:16.021Z,99586.63
2022-11-04T09:15:44.014Z,99585.84
2022-11-04T09:18:11.153Z,99566.44
2022-11-04T09:20:38.679Z,99585.97
2022-11-04T09:23:06.835Z,99579.44
2022-11-04T09:25:35.407Z,99565.81
2022-11-04T09:28:03.119Z,99575.91
2022-11-04T09:30:30.639Z,99583.66
2022-11-04T09:32:58.507Z,99577.34
2022-11-04T09:35:27.689Z,99561.97
2022-11-04T09:37:55.476Z,99566.25
2022-11-04T09:40:25.687Z,99559.72
2022-11-04T09:43:11.388Z,99581.63
2022-11-04T09:45:42.278Z,99556.03
2022-11-04T09:48:19.968Z,99565.84
2022-11-04T09:50:51.350Z,99566.25
2022-11-04T09:53:28.386Z,99564.44
2022-11-04T09:56:00.240Z,99552.22
2022-11-04T09:58:33.156Z,99559.81
2022-11-04T10:01:06.614Z,99560.72
2022-11-04T10:03:41.301Z,99548.25
2022-11-04T10:06:27.590Z,99540.06
2022-11-04T10:09:36.810Z,99539.91
2022-11-04T10:12:13.103Z,99553.03
2022-11-04T10:15:08.713Z,99542.25
2022-11-04T10:18:04.078Z,99551.81
2022-11-04T10:20:31.170Z,99546.91
2022-11-04T10:23:06.977Z,99541.47
2022-11-04T10:25:44.163Z,99554.66
2022-11-04T10:28:17.361Z,99549.63
2022-11-04T10:30:49.054Z,99551.00
2022-11-04T10:33:48.806Z,99551.25
2022-11-04T10:36:18.030Z,99572.13
2022-11-04T10:38:53.301Z,99560.38
2022-11-04T10:41:24.901Z,99551.91
2022-11-04T10:44:01.778Z,99545.25
2022-11-04T10:46:38.868Z,99534.69
2022-11-04T10:49:37.483Z,99546.97
2022-11-04T10:52:07.658Z,99540.84
2022-11-04T10:54:43.647Z,99561.59
2022-11-04T10:57:12.855Z,99536.19
2022-11-04T10:59:52.094Z,99541.84
2022-11-04T11:02:39.601Z,99537.44
2022-11-04T11:05:14.604Z,99541.75
2022-11-04T11:07:42.305Z,99545.28
2022-11-04T11:10:19.919Z,99543.28
2022-11-04T11:13:02.357Z,99545.63
2022-11-04T11:15:35.123Z,99526.72
2022-11-04T11:18:08.432Z,99541.38
2022-11-04T11:20:38.126Z,99535.66
2022-11-04T11:23:10.058Z,99515.56
2022-11-04T11:25:45.363Z,99525.19
2022-11-04T11:28:24.921Z,99516.66
2022-11-04T11:31:00.360Z,99517.59
2022-11-04T11:33:37.039Z,99506.59
2022-11-04T11:36:15.523Z,99501.06
2022-11-04T11:38:57.732Z,99498.31
2022-11-04T11:41:31.656Z,99485.41
2022-11-04T11:44:18.537Z,99485.78
2022-11-04T11:46:54.777Z,99483.97
2022-11-04T11:49:29.185Z,99486.19
2022-11-04T11:52:23.174Z,99483.13
2022-11-04T11:54:54.841Z,99463.53
2022-11-04T11:57:39.240Z,99479.97
2022-11-04T12:09:53.709Z,99476.72
2022-11-04T12:12:33.424Z,99478.56
2022-11-04T12:15:38.047Z,99485.00
2022-11-04T12:18:14.357Z,99491.88
2022-11-04T12:20:48.959Z,99505.03
2022-11-04T12:23:28.380Z,99504.72
2022-11-04T12:26:12.453Z,99503.00
2022-11-04T12:29:29.879Z,99499.75
2022-11-04T12:32:12.556Z,99497.63
2022-11-04T12:35:05.783Z,99503.53
2022-11-04T12:37:59.241Z,99515.31
2022-11-04T12:44:34.908Z,99515.22
2022-11-04T12:47:28.715Z,99508.38
2022-11-04T12:50:28.409Z,99499.34
2022-11-04T12:53:16.267Z,99496.63
2022-11-04T12:56:08.445Z,99496.91
2022-11-04T12:58:46.274Z,99504.66
2022-11-04T13:01:39.399Z,99506.41
2022-11-04T13:04:13.914Z,99492.75
2022-11-04T13:07:01.220Z,99500.69
2022-11-04T13:09:41.403Z,99497.03
2022-11-04T13:12:28.855Z,99486.59
2022-11-04T13:15:08.061Z,99491.94
2022-11-04T13:17:40.096Z,99490.69
2022-11-04T13:20:22.650Z,99501.06
2022-11-04T13:22:55.726Z,99503.81
2022-11-04T13:25:44.809Z,99488.06
2022-11-04T13:28:13.982Z,99507.31
2022-11-04T13:30:55.465Z,99515.41
2022-11-04T13:33:47.828Z,99516.81
2022-11-04T13:36:40.504Z,99514.00
2022-11-04T13:39:25.282Z,99511.13
2022-11-04T13:42:35.046Z,99518.63
2022-11-04T13:45:12.477Z,99521.03
2022-11-04T13:47:59.876Z,99507.84
2022-11-04T13:50:35.603Z,99514.91
2022-11-04T13:53:09.482Z,99501.22
2022-11-04T13:55:49.242Z,99496.38
2022-11-04T13:58:27.180Z,99505.00
2022-11-04T14:01:27.210Z,99509.31
2022-11-04T14:04:05.437Z,99509.81
2022-11-04T14:06:51.229Z,99503.75
2022-11-04T14:09:32.616Z,99506.13
2022-11-04T14:12:17.172Z,99511.41
2022-11-04T14:14:52.923Z,99493.09
2022-11-04T14:17:35.637Z,99511.97
2022-11-04T14:20:06.295Z,99497.41
2022-11-04T14:22:38.912Z,99486.44
2022-11-04T14:25:29.395Z,99505.13
2022-11-04T14:28:02.896Z,99498.09
2022-11-04T14:30:37.735Z,99498.47
2022-11-04T14:33:38.329Z,99498.22
2022-11-04T14:36:20.534Z,99504.22
2022-11-04T14:39:04.194Z,99503.59
2022-11-04T14:41:50.277Z,99505.97
2022-11-04T14:44:45.750Z,99516.06
2022-11-04T14:47:16.676Z,99511.03
2022-11-04T14:50:00.153Z,99520.34
2022-11-04T14:52:38.090Z,99510.66
2022-11-04T14:55:11.518Z,99508.34
2022-11-04T14:57:40.521Z,99518.16
2022-11-04T15:00:23.196Z,99516.78
2022-11-04T15:03:52.055Z,99510.16
2022-11-04T15:06:07.631Z,99514.97
2022-11-04T15:08:40.675Z,99521.13
2022-11-04T15:11:16.918Z,99511.22
2022-11-04T15:13:52.153Z,99509.56
2022-11-04T15:16:25.879Z,99510.47
2022-11-04T15:18:55.359Z,99531.28
2022-11-04T15:21:23.292Z,99524.56
2022-11-04T15:23:53.339Z,99528.41
2022-11-04T15:26:30.674Z,99530.53
2022-11-04T15:29:09.927Z,99527.81
2022-11-04T15:31:55.505Z,99520.75
2022-11-04T15:34:25.080Z,99528.25
2022-11-04T15:36:56.583Z,99535.56
2022-11-04T15:39:29.758Z,99537.28
2022-11-04T15:42:22.493Z,99531.38
2022-11-04T15:44:52.562Z,99528.28
2022-11-04T15:47:20.162Z,99533.91
2022-11-04T15:49:49.186Z,99536.72
2022-11-04T15:52:20.958Z,99532.06
2022-11-04T15:54:51.774Z,99529.84
2022-11-04T15:57:26.625Z,99522.84
2022-11-04T16:00:04.182Z,99529.09
2022-11-04T16:02:47.173Z,99529.31
2022-11-04T16:05:38.237Z,99528.47
2022-11-04T16:08:24.075Z,99532.31
2022-11-04T16:10:51.390Z,99526.88
2022-11-04T16:13:23.646Z,99517.91
2022-11-04T16:16:09.458Z,99526.63
2022-11-04T16:18:58.686Z,99538.66
2022-11-04T16:21:32.873Z,99529.91
2022-11-04T16:24:09.558Z,99530.72
2022-11-04T16:26:45.511Z,99516.97
2022-11-04T16:29:32.249Z,99527.63
2022-11-04T16:32:21.562Z,99518.00
2022-11-04T16:34:57.054Z,99520.13
2022-11-04T16:37:25.789Z,99519.28
2022-11-04T16:39:53.665Z,99520.81
2022-11-04T16:42:22.299Z,99524.09
2022-11-04T16:44:59.609Z,99519.66
2022-11-04T16:47:29.990Z,99505.19
2022-11-04T16:50:01.868Z,99530.84
2022-11-04T16:52:29.245Z,99517.47
2022-11-04T16:54:56.754Z,99518.69
2022-11-04T16:57:25.555Z,99519.06
2022-11-04T16:59:53.242Z,99523.91
2022-11-04T17:02:27.538Z,99516.59
2022-11-04T17:04:55.310Z,99529.69
2022-11-04T17:07:35.189Z,99526.56
2022-11-04T17:10:17.297Z,99529.44
2022-11-04T17:12:45.338Z,99532.31
2022-11-04T17:15:13.847Z,99538.03
2022-11-04T17:17:41.716Z,99524.34
2022-11-04T17:20:14.108Z,99530.38
2022-11-04T17:22:41.447Z,99536.09
2022-11-04T17:25:26.312Z,99527.84
2022-11-04T17:27:53.785Z,99532.44
2022-11-04T17:30:22.692Z,99534.06
2022-11-04T17:32:50.584Z,99536.81
2022-11-04T17:35:18.365Z,99520.66
2022-11-04T17:37:45.521Z,99526.69
2022-11-04T17:40:17.741Z,99542.34
2022-11-04T17:43:08.586Z,99538.03
2022-11-04T17:45:40.262Z,99545.72
2022-11-04T17:48:08.529Z,99540.94
2022-11-04T17:50:38.800Z,99540.34
2022-11-04T17:53:05.962Z,99532.66
2022-11-04T17:55:39.975Z,99540.59
2022-11-04T17:58:07.153Z,99542.16
2022-11-04T18:00:34.675Z,99537.81
2022-11-04T18:03:01.828Z,99540.31
2022-11-04T18:05:29.357Z,99526.22
2022-11-04T18:07:58.430Z,99527.19
2022-11-04T18:10:25.950Z,99527.19
2022-11-04T18:12:53.160Z,99531.47
2022-11-04T18:15:20.760Z,99520.75
2022-11-04T18:17:50.054Z,99528.94
2022-11-04T18:20:17.576Z,99522.66
2022-11-04T18:22:45.014Z,99515.09
2022-11-04T18:25:12.934Z,99517.19
2022-11-04T18:27:40.281Z,99511.28
2022-11-04T18:30:08.431Z,99519.41
2022-11-04T18:32:35.683Z,99515.41
2022-11-04T18:35:03.152Z,99514.22
2022-11-04T18:37:30.313Z,99516.50
2022-11-04T18:39:57.832Z,99514.06
2022-11-04T18:42:25.029Z,99521.94
2022-11-04T18:44:52.513Z,99523.34
2022-11-04T18:47:20.271Z,99517.84
2022-11-04T18:49:48.054Z,99524.47
2022-11-04T18:52:15.278Z,99528.25
2022-11-04T18:54:43.546Z,99523.56
2022-11-04T18:57:12.103Z,99506.38
2022-11-04T18:59:39.654Z,99509.47
2022-11-04T19:02:08.024Z,99503.19
2022-11-04T19:04:35.558Z,99507.38
2022-11-04T19:07:04.463Z,99511.19
2022-11-04T19:09:47.890Z,99500.75
2022-11-04T19:12:35.362Z,99511.63
2022-11-04T19:15:04.596Z,99507.50
2022-11-04T19:17:31.912Z,99522.44
2022-11-04T19:19:59.406Z,99506.09
2022-11-04T19:22:26.519Z,99507.75
2022-11-04T19:24:54.022Z,99507.72
2022-11-04T19:27:23.053Z,99506.09
2022-11-04T19:29:51.246Z,99490.03
2022-11-04T19:32:18.838Z,99500.41
2022-11-04T19:34:46.533Z,99507.69
2022-11-04T19:37:13.899Z,99501.94
2022-11-04T19:39:41.861Z,99512.63
2022-11-04T19:42:29.825Z,99510.59
2022-11-04T19:44:57.355Z,99509.25
2022-11-04T19:47:24.587Z,99508.88
2022-11-04T19:49:52.243Z,99502.56
2022-11-04T19:52:19.610Z,99511.00
2022-11-04T19:54:47.270Z,99513.81
2022-11-04T19:57:14.472Z,99513.81
2022-11-04T19:59:41.973Z,99502.97
2022-11-04T20:02:13.928Z,99513.94
2022-11-04T20:04:41.522Z,99514.25
2022-11-04T20:07:08.652Z,99514.66
2022-11-04T20:09:36.200Z,99511.84
2022-11-04T20:12:21.882Z,99504.56
2022-11-04T20:14:49.390Z,99512.13
2022-11-04T20:17:16.594Z,99509.03
2022-11-04T20:19:44.194Z,99523.91
2022-11-04T20:22:11.369Z,99523.22
2022-11-04T20:24:38.895Z,99524.53
2022-11-04T20:27:06.040Z,99522.81
2022-11-04T20:29:33.803Z,99521.38
2022-11-04T20:32:00.975Z,99518.78
2022-11-04T20:34:32.656Z,99526.25
2022-11-04T20:37:00.846Z,99509.38
2022-11-04T20:39:28.327Z,99515.25
2022-11-04T20:41:55.566Z,99525.00
2022-11-04T20:44:23.058Z,99522.19
2022-11-04T20:46:50.180Z,99513.34
2022-11-04T20:49:17.621Z,99516.81
2022-11-04T20:51:50.176Z,99517.53
2022-11-04T20:54:20.938Z,99504.59
2022-11-04T20:56:48.125Z,99514.72
2022-11-04T20:59:15.612Z,99518.00
2022-11-04T21:01:45.079Z,99521.63
2022-11-04T21:04:15.261Z,99518.81
2022-11-04T21:06:42.900Z,99526.47
2022-11-04T21:09:13.409Z,99529.81
2022-11-04T21:11:41.112Z,99519.69
2022-11-04T21:14:11.765Z,99528.00
2022-11-04T21:16:39.042Z,99532.19
2022-11-04T21:19:07.759Z,99521.22
2022-11-04T21:21:35.196Z,99538.88
2022-11-04T21:24:05.083Z,99527.13
2022-11-04T21:26:35.460Z,99534.47
2022-11-04T21:29:07.027Z,99536.13
2022-11-04T21:31:36.191Z,99530.13
2022-11-04T21:34:04.754Z,99519.50
2022-11-04T21:36:32.599Z,99529.75
2022-11-04T21:39:00.327Z,99528.66
2022-11-04T21:41:29.777Z,99523.75
2022-11-04T21:43:59.204Z,99521.34
2022-11-04T21:46:28.264Z,99515.88
2022-11-04T21:48:56.332Z,99512.78
2022-11-04T21:51:26.317Z,99519.56
2022-11-04T21:53:53.788Z,99501.09
2022-11-04T21:56:26.469Z,99509.13
2022-11-04T21:58:55.172Z,99502.25
2022-11-04T22:01:25.969Z,99508.81
2022-11-04T22:03:56.202Z,99517.53
2022-11-04T22:06:23.844Z,99512.50
2022-11-04T22:08:54.351Z,99513.59
2022-11-04T22:11:24.619Z,99506.81
2022-11-04T22:13:58.020Z,99499.31
2022-11-04T22:16:27.639Z,99507.56
2022-11-04T22:18:57.586Z,99495.03
2022-11-04T22:21:27.031Z,99498.38
2022-11-04T22:23:55.008Z,99492.19
2022-11-04T22:26:24.846Z,99506.94
2022-11-04T22:28:53.508Z,99498.81
2022-11-04T22:31:27.301Z,99500.63
2022-11-04T22:33:55.734Z,99493.91
2022-11-04T22:36:23.506Z,99498.56
2022-11-04T22:38:51.085Z,99513.34
2022-11-04T22:41:24.203Z,99496.50
2022-11-04T22:43:51.810Z,99495.75
2022-11-04T22:46:21.685Z,99501.94
2022-11-04T22:48:49.435Z,99493.13
2022-11-04T22:51:17.522Z,99483.53
2022-11-04T22:53:45.334Z,99492.75
2022-11-04T22:56:14.376Z,99479.63
2022-11-04T22:58:41.867Z,99486.28
2022-11-04T23:01:11.739Z,99471.97
2022-11-04T23:03:39.984Z,99470.97
2022-11-04T23:06:08.443Z,99470.03
2022-11-04T23:08:36.865Z,99465.97
2022-11-04T23:11:32.137Z,99473.28
2022-11-04T23:14:20.800Z,99464.94
2022-11-04T23:17:08.992Z,99466.59
2022-11-04T23:19:37.357Z,99464.34
2022-11-04T23:22:23.603Z,99470.44
2022-11-04T23:25:06.186Z,99469.88
2022-11-04T23:28:03.585Z,99475.66
2022-11-04T23:30:37.204Z,99479.88
2022-11-04T23:33:10.362Z,99473.66
2022-11-04T23:35:58.470Z,99481.56
2022-11-04T23:38:26.703Z,99482.72
2022-11-04T23:41:14.693Z,99490.72
2022-11-04T23:43:42.059Z,99482.53
2022-11-04T23:46:29.833Z,99488.06
2022-11-04T23:49:15.997Z,99491.41
2022-11-04T23:52:02.048Z,99492.16
2022-11-04T23:54:47.738Z,99501.00
2022-11-04T23:57:36.785Z,99497.06
